createdAt,value
2022-11-01T00:07:25.729Z,881.38
2022-11-01T00:08:25.544Z,864.39
2022-11-01T00:11:25.631Z,840.09
2022-11-01T00:12:25.508Z,696.91
2022-11-01T00:51:25.242Z,1089.06
2022-11-01T00:52:25.117Z,1068.30
2022-11-01T00:53:25.303Z,1078.58
2022-11-01T01:56:24.481Z,1164.50
2022-11-01T03:49:23.529Z,1062.40
2022-11-01T06:47:21.839Z,338.51
2022-11-01T06:48:21.617Z,335.76
2022-11-01T07:11:21.373Z,300.64
2022-11-01T10:37:19.300Z,450.58
2022-11-01T10:38:38.113Z,468.17
2022-11-01T10:40:18.445Z,517.58
2022-11-01T10:41:19.395Z,537.03
2022-11-01T10:42:19.248Z,558.92
2022-11-01T10:43:19.426Z,543.54
2022-11-01T10:44:19.232Z,477.82
2022-11-01T10:45:19.449Z,491.10
2022-11-01T10:46:19.207Z,486.12
2022-11-01T10:47:19.428Z,461.73
2022-11-01T10:48:19.196Z,470.13
2022-11-01T10:49:19.312Z,486.12
2022-11-01T10:50:19.223Z,489.31
2022-11-01T10:51:22.874Z,500.61
2022-11-01T10:52:19.149Z,535.32
2022-11-01T10:53:19.314Z,553.85
2022-11-01T10:54:19.127Z,579.66
2022-11-01T10:55:19.277Z,589.84
2022-11-01T10:56:22.989Z,599.31
2022-11-01T10:57:19.143Z,598.77
2022-11-01T10:58:19.226Z,600.91
2022-11-01T10:59:19.073Z,593.48
2022-11-01T11:00:19.309Z,597.71
2022-11-01T11:01:19.251Z,608.53
2022-11-01T11:02:19.320Z,619.76
2022-11-01T11:03:19.515Z,604.16
2022-11-01T11:04:19.043Z,602.53
2022-11-01T11:05:19.147Z,597.17
2022-11-01T11:06:19.009Z,590.35
2022-11-01T11:07:21.580Z,586.74
2022-11-01T11:08:19.043Z,582.17
2022-11-01T11:09:19.162Z,578.16
2022-11-01T11:10:22.763Z,552.94
2022-11-01T11:11:19.078Z,546.20
2022-11-01T11:12:18.949Z,555.68
2022-11-01T11:13:19.378Z,552.94
2022-11-01T11:14:19.026Z,548.43
2022-11-01T11:15:19.046Z,545.31
2022-11-01T11:16:18.919Z,537.89
2022-11-01T11:17:19.068Z,531.08
2022-11-01T11:18:18.901Z,531.50
2022-11-01T11:19:19.054Z,525.27
2022-11-01T11:20:18.915Z,522.41
2022-11-01T11:21:18.971Z,508.95
2022-11-01T11:22:18.844Z,498.38
2022-11-01T11:23:19.036Z,489.67
2022-11-01T11:24:18.827Z,486.47
2022-11-01T11:25:19.008Z,481.94
2022-11-01T11:26:18.885Z,465.57
2022-11-01T11:27:18.906Z,456.71
2022-11-01T11:28:18.784Z,442.86
2022-11-01T11:29:18.947Z,435.40
2022-11-01T11:30:18.792Z,421.20
2022-11-01T11:31:18.974Z,411.65
2022-11-01T11:32:18.803Z,416.76
2022-11-01T11:33:18.869Z,412.41
2022-11-01T11:34:18.756Z,408.40
2022-11-01T11:35:18.908Z,402.53
2022-11-01T11:36:18.714Z,393.57
2022-11-01T11:37:18.867Z,382.37
2022-11-01T11:38:18.734Z,374.14
2022-11-01T11:39:18.809Z,367.07
2022-11-01T11:40:18.665Z,357.93
2022-11-01T11:41:18.830Z,354.48
2022-11-01T11:42:18.689Z,352.21
2022-11-01T11:43:18.861Z,347.40
2022-11-01T11:44:18.677Z,343.43
2022-11-01T11:45:18.744Z,342.01
2022-11-01T11:46:18.605Z,340.60
2022-11-01T11:47:18.768Z,336.44
2022-11-01T11:48:18.588Z,337.13
2022-11-01T11:49:18.706Z,329.07
2022-11-01T11:50:18.798Z,329.07
2022-11-01T11:51:18.550Z,328.09
2022-11-01T11:52:18.674Z,328.74
2022-11-01T11:53:18.533Z,319.22
2022-11-01T11:54:18.703Z,317.08
2022-11-01T11:55:18.512Z,314.36
2022-11-01T11:56:18.737Z,309.65
2022-11-01T11:57:18.496Z,307.06
2022-11-01T11:58:18.611Z,305.08
2022-11-01T11:59:18.486Z,306.21
2022-11-01T12:00:18.647Z,302.57
2022-11-01T12:01:18.490Z,304.52
2022-11-01T12:02:18.883Z,304.52
2022-11-01T12:03:18.436Z,300.09
2022-11-01T12:04:18.548Z,297.39
2022-11-01T12:05:18.413Z,295.53
2022-11-01T12:06:18.571Z,295.80
2022-11-01T12:07:18.395Z,293.95
2022-11-01T12:08:18.574Z,290.09
2022-11-01T12:09:22.846Z,287.06
2022-11-01T12:10:18.572Z,282.16
2022-11-01T12:11:18.355Z,281.92
2022-11-01T12:12:18.470Z,276.96
2022-11-01T12:13:18.333Z,273.98
2022-11-01T12:14:18.560Z,275.81
2022-11-01T12:15:18.325Z,272.85
2022-11-01T12:16:18.452Z,271.50
2022-11-01T12:17:18.304Z,269.95
2022-11-01T12:18:18.462Z,265.40
2022-11-01T12:19:18.277Z,260.79
2022-11-01T12:20:18.562Z,258.35
2022-11-01T12:21:18.252Z,258.14
2022-11-01T12:22:18.420Z,257.14
2022-11-01T12:23:18.230Z,253.20
2022-11-01T12:24:18.350Z,252.62
2022-11-01T12:25:18.215Z,252.24
2022-11-01T12:26:18.436Z,249.95
2022-11-01T12:27:18.197Z,249.76
2022-11-01T12:28:18.371Z,246.59
2022-11-01T12:29:18.175Z,245.13
2022-11-01T12:30:18.297Z,241.37
2022-11-01T12:31:18.382Z,243.68
2022-11-01T12:32:18.145Z,240.49
2022-11-01T12:33:18.252Z,239.10
2022-11-01T12:34:18.124Z,237.04
2022-11-01T12:35:18.293Z,238.93
2022-11-01T12:36:18.111Z,238.75
2022-11-01T12:37:18.273Z,237.72
2022-11-01T12:38:18.089Z,238.75
2022-11-01T12:39:18.255Z,238.24
2022-11-01T12:40:18.070Z,236.53
2022-11-01T12:41:18.230Z,236.70
2022-11-01T12:42:18.048Z,237.38
2022-11-01T12:43:18.211Z,237.04
2022-11-01T12:44:18.023Z,238.24
2022-11-01T12:45:18.230Z,237.04
2022-11-01T12:46:18.006Z,236.19
2022-11-01T12:47:18.171Z,233.03
2022-11-01T12:48:17.994Z,232.87
2022-11-01T12:49:18.164Z,233.52
2022-11-01T12:50:17.971Z,233.86
2022-11-01T12:51:18.304Z,234.69
2022-11-01T12:52:17.940Z,236.03
2022-11-01T12:53:18.113Z,235.35
2022-11-01T12:54:17.943Z,235.52
2022-11-01T12:55:20.677Z,237.38
2022-11-01T12:56:17.907Z,237.04
2022-11-01T12:57:18.021Z,234.52
2022-11-01T12:58:17.883Z,235.02
2022-11-01T12:59:18.049Z,234.52
2022-11-01T13:00:17.864Z,232.05
2022-11-01T13:01:18.136Z,230.91
2022-11-01T13:02:17.884Z,232.87
2022-11-01T13:03:18.020Z,231.72
2022-11-01T13:04:17.832Z,230.91
2022-11-01T13:05:17.910Z,231.72
2022-11-01T13:06:17.830Z,231.56
2022-11-01T13:07:18.113Z,232.05
2022-11-01T13:08:17.792Z,230.27
2022-11-01T13:09:17.908Z,229.95
2022-11-01T13:10:17.769Z,229.31
2022-11-01T13:11:17.940Z,229.63
2022-11-01T13:12:17.743Z,228.84
2022-11-01T13:13:17.914Z,229.15
2022-11-01T13:14:17.735Z,228.05
2022-11-01T13:15:17.888Z,227.42
2022-11-01T13:16:17.702Z,228.36
2022-11-01T13:17:17.828Z,228.68
2022-11-01T13:18:17.680Z,228.52
2022-11-01T13:19:17.897Z,227.42
2022-11-01T13:20:17.668Z,225.56
2022-11-01T13:21:17.831Z,226.02
2022-11-01T13:22:17.644Z,225.56
2022-11-01T13:23:17.765Z,224.49
2022-11-01T13:24:17.623Z,224.18
2022-11-01T13:25:17.901Z,225.40
2022-11-01T13:26:17.611Z,225.71
2022-11-01T13:27:17.767Z,227.73
2022-11-01T13:28:17.584Z,227.73
2022-11-01T13:29:17.882Z,228.84
2022-11-01T13:30:17.564Z,227.73
2022-11-01T13:31:17.744Z,229.47
2022-11-01T13:32:17.540Z,229.31
2022-11-01T13:33:17.701Z,231.72
2022-11-01T13:34:17.528Z,231.24
2022-11-01T13:35:17.688Z,230.43
2022-11-01T13:36:17.505Z,231.08
2022-11-01T13:37:17.669Z,231.89
2022-11-01T13:38:17.496Z,231.40
2022-11-01T13:39:17.647Z,233.52
2022-11-01T13:40:17.475Z,230.91
2022-11-01T13:41:17.663Z,230.11
2022-11-01T13:42:17.450Z,228.84
2022-11-01T13:43:17.636Z,229.95
2022-11-01T13:44:17.419Z,228.36
2022-11-01T13:45:17.548Z,229.47
2022-11-01T13:46:17.404Z,229.63
2022-11-01T13:47:17.726Z,228.36
2022-11-01T13:48:17.380Z,229.79
2022-11-01T13:49:17.554Z,229.63
2022-11-01T13:50:17.360Z,228.68
2022-11-01T13:51:17.585Z,228.05
2022-11-01T13:52:17.356Z,228.20
2022-11-01T13:53:18.424Z,228.05
2022-11-01T13:54:17.543Z,228.05
2022-11-01T13:55:17.367Z,228.68
2022-11-01T13:56:17.438Z,230.91
2022-11-01T13:57:17.303Z,232.21
2022-11-01T13:58:17.512Z,236.87
2022-11-01T13:59:17.282Z,237.55
2022-11-01T14:00:17.427Z,238.07
2022-11-01T14:01:17.407Z,241.02
2022-11-01T14:02:17.546Z,244.40
2022-11-01T14:03:17.245Z,248.26
2022-11-01T14:04:17.403Z,246.96
2022-11-01T14:05:17.220Z,244.94
2022-11-01T14:06:17.433Z,244.40
2022-11-01T14:07:17.193Z,241.90
2022-11-01T14:08:17.369Z,241.02
2022-11-01T14:09:17.179Z,236.36
2022-11-01T14:10:17.252Z,234.85
2022-11-01T14:11:17.153Z,232.54
2022-11-01T14:12:17.379Z,233.52
2022-11-01T14:13:17.136Z,235.19
2022-11-01T14:14:17.228Z,235.52
2022-11-01T14:15:17.106Z,237.04
2022-11-01T14:16:17.250Z,236.87
2022-11-01T14:17:17.107Z,235.35
2022-11-01T14:18:17.307Z,235.02
2022-11-01T14:19:20.593Z,232.38
2022-11-01T14:20:17.244Z,231.08
2022-11-01T14:21:17.057Z,229.00
2022-11-01T14:22:17.166Z,229.63
2022-11-01T14:23:17.036Z,227.42
2022-11-01T14:24:17.248Z,228.20
2022-11-01T14:25:17.083Z,226.49
2022-11-01T14:26:17.172Z,225.40
2022-11-01T14:27:16.993Z,224.33
2022-11-01T14:28:17.157Z,221.33
2022-11-01T14:29:17.199Z,220.88
2022-11-01T14:30:16.963Z,218.98
2022-11-01T14:31:17.134Z,218.98
2022-11-01T14:32:16.938Z,217.83
2022-11-01T14:33:17.059Z,216.54
2022-11-01T14:34:16.922Z,216.40
2022-11-01T14:35:17.145Z,216.26
2022-11-01T14:36:16.909Z,214.86
2022-11-01T14:37:17.031Z,214.30
2022-11-01T14:38:16.882Z,214.16
2022-11-01T14:39:17.050Z,214.16
2022-11-01T14:40:16.863Z,213.61
2022-11-01T14:41:17.078Z,213.47
2022-11-01T14:42:16.854Z,212.23
2022-11-01T14:43:17.011Z,211.83
2022-11-01T14:44:16.825Z,211.83
2022-11-01T14:45:16.944Z,211.83
2022-11-01T14:46:16.802Z,210.75
2022-11-01T14:47:17.020Z,210.75
2022-11-01T14:48:16.783Z,210.21
2022-11-01T14:49:17.200Z,210.08
2022-11-01T14:50:16.762Z,208.75
2022-11-01T14:51:16.877Z,210.08
2022-11-01T14:52:16.737Z,210.34
2022-11-01T14:53:17.051Z,210.34
2022-11-01T14:54:16.719Z,211.96
2022-11-01T14:55:16.836Z,212.64
2022-11-01T14:56:16.706Z,212.23
2022-11-01T14:57:16.870Z,210.48
2022-11-01T14:58:16.679Z,209.54
2022-11-01T14:59:16.946Z,207.57
2022-11-01T15:00:16.668Z,207.18
2022-11-01T15:01:16.917Z,206.92
2022-11-01T15:02:16.795Z,206.02
2022-11-01T15:03:16.850Z,205.76
2022-11-01T15:04:16.619Z,204.74
2022-11-01T15:05:16.875Z,204.49
2022-11-01T15:06:16.615Z,205.12
2022-11-01T15:07:16.731Z,206.02
2022-11-01T15:08:16.580Z,205.76
2022-11-01T15:09:16.755Z,203.98
2022-11-01T15:10:16.561Z,203.73
2022-11-01T15:11:16.793Z,205.25
2022-11-01T15:12:16.537Z,205.63
2022-11-01T15:13:16.663Z,206.53
2022-11-01T15:14:16.522Z,206.27
2022-11-01T15:15:16.660Z,206.66
2022-11-01T15:16:16.498Z,206.02
2022-11-01T15:17:16.967Z,207.57
2022-11-01T15:18:16.477Z,205.38
2022-11-01T15:19:16.603Z,207.05
2022-11-01T15:20:16.464Z,206.40
2022-11-01T15:22:15.369Z,206.27
2022-11-01T15:23:16.608Z,207.05
2022-11-01T15:24:16.419Z,209.28
2022-11-01T15:25:16.592Z,209.94
2022-11-01T15:26:16.395Z,210.75
2022-11-01T15:27:16.565Z,212.10
2022-11-01T15:28:16.384Z,211.02
2022-11-01T15:29:16.665Z,209.81
2022-11-01T15:30:16.357Z,208.88
2022-11-01T15:31:17.437Z,210.48
2022-11-01T15:32:16.594Z,208.75
2022-11-01T15:33:16.333Z,208.88
2022-11-01T15:34:16.442Z,207.96
2022-11-01T15:35:16.596Z,207.96
2022-11-01T15:36:16.304Z,207.96
2022-11-01T15:37:16.416Z,208.49
2022-11-01T15:38:20.383Z,207.70
2022-11-01T15:39:16.445Z,210.34
2022-11-01T15:40:16.268Z,207.83
2022-11-01T15:41:16.447Z,207.31
2022-11-01T15:42:16.243Z,207.05
2022-11-01T15:43:16.376Z,205.38
2022-11-01T15:44:16.215Z,205.76
2022-11-01T15:45:16.387Z,205.00
2022-11-01T15:46:16.211Z,205.38
2022-11-01T15:47:16.384Z,202.61
2022-11-01T15:48:16.220Z,203.48
2022-11-01T15:49:16.299Z,203.86
2022-11-01T15:50:16.156Z,204.24
2022-11-01T15:51:16.382Z,204.61
2022-11-01T15:52:16.152Z,205.63
2022-11-01T15:53:16.355Z,203.48
2022-11-01T15:54:16.126Z,201.74
2022-11-01T15:55:16.238Z,201.37
2022-11-01T15:56:16.099Z,201.01
2022-11-01T15:57:16.284Z,201.13
2022-11-01T15:58:16.129Z,200.88
2022-11-01T15:59:16.247Z,200.64
2022-11-01T16:00:16.058Z,200.52
2022-11-01T16:01:16.406Z,199.43
2022-11-01T16:02:16.216Z,199.67
2022-11-01T16:03:16.156Z,200.15
2022-11-01T16:04:16.217Z,198.47
2022-11-01T16:05:16.020Z,198.00
2022-11-01T16:06:16.123Z,199.91
2022-11-01T16:07:15.990Z,198.23
2022-11-01T16:08:16.155Z,198.59
2022-11-01T16:09:15.975Z,199.07
2022-11-01T16:10:16.183Z,199.07
2022-11-01T16:11:15.949Z,199.19
2022-11-01T16:12:16.071Z,198.71
2022-11-01T16:13:15.934Z,198.47
2022-11-01T16:14:16.082Z,199.19
2022-11-01T16:15:15.908Z,198.00
2022-11-01T16:16:16.125Z,197.05
2022-11-01T16:18:14.931Z,195.19
2022-11-01T16:19:16.048Z,195.42
2022-11-01T16:20:15.853Z,196.47
2022-11-01T16:21:15.961Z,194.96
2022-11-01T16:22:16.066Z,195.42
2022-11-01T16:23:15.835Z,194.62
2022-11-01T16:24:15.944Z,194.04
2022-11-01T16:25:15.807Z,195.30
2022-11-01T16:26:15.972Z,195.65
2022-11-01T16:27:15.783Z,195.30
2022-11-01T16:28:15.998Z,195.54
2022-11-01T16:29:15.784Z,195.88
2022-11-01T16:30:15.880Z,195.30
2022-11-01T16:31:15.743Z,194.04
2022-11-01T16:32:15.917Z,196.00
2022-11-01T16:33:15.729Z,194.96
2022-11-01T16:34:15.945Z,195.77
2022-11-01T16:35:15.715Z,194.85
2022-11-01T16:37:14.627Z,195.19
2022-11-01T16:38:15.817Z,195.08
2022-11-01T16:39:15.680Z,193.82
2022-11-01T16:40:15.936Z,193.25
2022-11-01T16:41:15.645Z,194.96
2022-11-01T16:42:15.766Z,193.25
2022-11-01T16:43:15.623Z,195.30
2022-11-01T16:44:15.787Z,194.04
2022-11-01T16:45:15.614Z,196.58
2022-11-01T16:46:15.820Z,197.41
2022-11-01T16:47:15.585Z,197.88
2022-11-01T16:48:15.802Z,200.03
2022-11-01T16:49:15.570Z,199.43
2022-11-01T16:50:15.688Z,200.03
2022-11-01T16:51:15.541Z,200.27
2022-11-01T16:52:15.774Z,200.27
2022-11-01T16:53:15.524Z,199.91
2022-11-01T16:54:15.684Z,199.31
2022-11-01T16:55:15.516Z,199.31
2022-11-01T16:56:36.513Z,199.19
2022-11-01T16:57:15.485Z,198.71
2022-11-01T16:58:15.702Z,199.79
2022-11-01T16:59:15.463Z,198.35
2022-11-01T17:00:15.593Z,198.95
2022-11-01T17:01:15.602Z,199.19
2022-11-01T17:02:15.835Z,199.07
2022-11-01T17:03:15.420Z,197.64
2022-11-01T17:04:15.641Z,197.52
2022-11-01T17:05:15.421Z,198.23
2022-11-01T17:06:15.509Z,201.25
2022-11-01T17:07:15.437Z,203.11
2022-11-01T17:08:15.548Z,205.63
2022-11-01T17:09:15.373Z,205.25
2022-11-01T17:10:15.573Z,201.62
2022-11-01T17:11:15.341Z,199.07
2022-11-01T17:12:15.469Z,197.88
2022-11-01T17:13:15.318Z,197.17
2022-11-01T17:14:15.487Z,195.65
2022-11-01T17:15:15.337Z,194.39
2022-11-01T17:16:15.526Z,194.04
2022-11-01T17:17:15.282Z,193.48
2022-11-01T17:18:15.405Z,193.25
2022-11-01T17:19:15.257Z,194.04
2022-11-01T17:20:15.683Z,194.39
2022-11-01T17:21:15.253Z,193.82
2022-11-01T17:22:15.408Z,194.50
2022-11-01T17:23:15.219Z,195.08
2022-11-01T17:24:15.394Z,194.73
2022-11-01T17:25:15.203Z,194.50
2022-11-01T17:26:15.318Z,195.08
2022-11-01T17:27:15.177Z,195.65
2022-11-01T17:28:15.394Z,196.82
2022-11-01T17:29:15.158Z,196.35
2022-11-01T17:30:15.319Z,196.12
2022-11-01T17:31:15.151Z,196.12
2022-11-01T17:32:15.360Z,196.00
2022-11-01T17:33:15.158Z,195.54
2022-11-01T17:34:15.302Z,195.19
2022-11-01T17:35:15.098Z,194.16
2022-11-01T17:36:15.275Z,193.14
2022-11-01T17:37:15.079Z,193.48
2022-11-01T17:38:15.194Z,194.16
2022-11-01T17:39:15.073Z,194.27
2022-11-01T17:40:15.274Z,193.25
2022-11-01T17:41:15.041Z,193.36
2022-11-01T17:42:15.199Z,194.04
2022-11-01T17:43:15.018Z,194.39
2022-11-01T17:44:15.139Z,195.19
2022-11-01T17:45:15.000Z,194.96
2022-11-01T17:46:15.266Z,193.59
2022-11-01T17:47:14.991Z,195.65
2022-11-01T17:48:15.162Z,194.04
2022-11-01T17:49:14.960Z,192.91
2022-11-01T17:50:15.131Z,195.08
2022-11-01T17:51:14.944Z,193.59
2022-11-01T17:52:15.111Z,193.14
2022-11-01T17:53:14.919Z,192.69
2022-11-01T17:54:15.184Z,192.35
2022-11-01T17:55:14.899Z,192.69
2022-11-01T17:56:15.062Z,191.24
2022-11-01T17:57:14.881Z,191.35
2022-11-01T17:58:15.049Z,190.03
2022-11-01T17:59:14.860Z,189.70
2022-11-01T18:00:15.079Z,190.58
2022-11-01T18:01:14.935Z,190.47
2022-11-01T18:02:15.204Z,189.70
2022-11-01T18:03:14.827Z,190.58
2022-11-01T18:04:15.035Z,190.03
2022-11-01T18:05:14.794Z,188.51
2022-11-01T18:06:14.965Z,187.66
2022-11-01T18:07:14.780Z,187.23
2022-11-01T18:08:14.948Z,187.34
2022-11-01T18:09:14.761Z,185.86
2022-11-01T18:10:14.966Z,186.80
2022-11-01T18:11:14.736Z,186.18
2022-11-01T18:12:14.926Z,185.65
2022-11-01T18:13:14.737Z,185.97
2022-11-01T18:14:14.856Z,185.97
2022-11-01T18:15:14.696Z,184.34
2022-11-01T18:16:14.863Z,184.14
2022-11-01T18:17:14.681Z,183.74
2022-11-01T18:18:14.836Z,182.74
2022-11-01T18:19:14.659Z,182.54
2022-11-01T18:20:14.779Z,182.34
2022-11-01T18:21:14.636Z,182.54
2022-11-01T18:22:14.845Z,181.36
2022-11-01T18:23:14.619Z,181.36
2022-11-01T18:24:19.750Z,181.36
2022-11-01T18:25:14.613Z,181.36
2022-11-01T18:26:14.788Z,180.39
2022-11-01T18:27:14.608Z,180.58
2022-11-01T18:28:14.763Z,180.39
2022-11-01T18:29:14.561Z,179.61
2022-11-01T18:30:14.746Z,180.97
2022-11-01T18:31:14.543Z,180.58
2022-11-01T18:32:14.657Z,181.75
2022-11-01T18:33:14.515Z,182.94
2022-11-01T18:34:14.734Z,183.74
2022-11-01T18:36:13.556Z,184.75
2022-11-01T18:37:14.658Z,183.94
2022-11-01T18:38:14.470Z,184.54
2022-11-01T18:39:14.550Z,185.15
2022-11-01T18:40:14.689Z,182.94
2022-11-01T18:41:14.431Z,185.15
2022-11-01T18:42:14.554Z,184.75
2022-11-01T18:43:14.411Z,184.14
2022-11-01T18:44:14.629Z,185.36
2022-11-01T18:45:14.397Z,184.14
2022-11-01T18:46:29.930Z,184.95
2022-11-01T18:47:14.391Z,184.14
2022-11-01T18:48:14.496Z,184.34
2022-11-01T18:49:14.351Z,183.74
2022-11-01T18:50:16.489Z,185.56
2022-11-01T18:51:14.331Z,185.97
2022-11-01T18:52:14.603Z,185.44
2022-11-01T18:53:14.313Z,186.70
2022-11-01T18:54:14.401Z,186.70
2022-11-01T18:55:14.309Z,186.81
2022-11-01T18:56:14.482Z,188.51
2022-11-01T18:57:14.284Z,187.12
2022-11-01T18:58:14.447Z,186.91
2022-11-01T18:59:14.259Z,186.28
2022-11-01T19:00:14.416Z,185.86
2022-11-01T19:01:14.382Z,186.07
2022-11-01T19:02:14.567Z,185.55
2022-11-01T19:03:14.218Z,186.18
2022-11-01T19:04:14.457Z,185.34
2022-11-01T19:05:14.195Z,186.18
2022-11-01T19:06:14.316Z,185.76
2022-11-01T19:07:14.187Z,187.23
2022-11-01T19:08:14.337Z,188.94
2022-11-01T19:09:14.160Z,190.03
2022-11-01T19:10:14.408Z,192.24
2022-11-01T19:11:14.128Z,193.14
2022-11-01T19:12:14.250Z,194.96
2022-11-01T19:13:14.114Z,195.54
2022-11-01T19:14:14.281Z,197.05
2022-11-01T19:15:14.094Z,197.64
2022-11-01T19:16:14.367Z,197.41
2022-11-01T19:17:14.080Z,201.13
2022-11-01T19:18:14.241Z,200.88
2022-11-01T19:19:14.048Z,200.88
2022-11-01T19:20:14.174Z,199.91
2022-11-01T19:21:14.272Z,199.31
2022-11-01T19:22:14.032Z,199.91
2022-11-01T19:23:14.150Z,199.31
2022-11-01T19:24:14.003Z,200.27
2022-11-01T19:25:14.227Z,199.19
2022-11-01T19:26:13.979Z,202.61
2022-11-01T19:27:14.148Z,202.48
2022-11-01T19:28:13.957Z,203.23
2022-11-01T19:29:14.125Z,203.73
2022-11-01T19:30:13.950Z,204.24
2022-11-01T19:31:14.022Z,204.24
2022-11-01T19:32:13.932Z,204.74
2022-11-01T19:33:14.134Z,204.87
2022-11-01T19:34:13.905Z,203.61
2022-11-01T19:35:18.089Z,202.24
2022-11-01T19:36:13.894Z,200.27
2022-11-01T19:37:14.047Z,200.64
2022-11-01T19:38:13.867Z,199.91
2022-11-01T19:39:14.029Z,198.35
2022-11-01T19:40:13.838Z,199.19
2022-11-01T19:41:14.013Z,198.71
2022-11-01T19:42:13.816Z,199.07
2022-11-01T19:43:13.971Z,197.17
2022-11-01T19:44:13.800Z,197.29
2022-11-01T19:45:13.965Z,198.59
2022-11-01T19:46:13.787Z,202.11
2022-11-01T19:47:16.146Z,205.76
2022-11-01T19:48:13.783Z,207.70
2022-11-01T19:49:13.877Z,207.18
2022-11-01T19:50:13.746Z,206.66
2022-11-01T19:51:13.952Z,204.61
2022-11-01T19:52:13.732Z,202.73
2022-11-01T19:53:13.898Z,202.48
2022-11-01T19:54:13.702Z,202.11
2022-11-01T19:55:13.821Z,202.48
2022-11-01T19:56:13.677Z,202.11
2022-11-01T19:57:14.083Z,202.11
2022-11-01T19:58:13.663Z,204.49
2022-11-01T19:59:13.804Z,203.23
2022-11-01T20:00:13.638Z,205.76
2022-11-01T20:01:13.956Z,208.75
2022-11-01T20:02:13.798Z,211.28
2022-11-01T20:03:13.791Z,210.61
2022-11-01T20:04:13.607Z,211.15
2022-11-01T20:05:13.802Z,212.78
2022-11-01T20:06:13.575Z,213.47
2022-11-01T20:07:13.700Z,213.47
2022-11-01T20:08:13.567Z,214.16
2022-11-01T20:09:14.003Z,219.13
2022-11-01T20:10:13.534Z,221.33
2022-11-01T20:11:13.648Z,226.02
2022-11-01T20:12:14.248Z,228.68
2022-11-01T20:13:13.679Z,231.56
2022-11-01T20:14:13.498Z,236.19
2022-11-01T20:15:13.701Z,240.49
2022-11-01T20:16:13.475Z,242.61
2022-11-01T20:17:13.583Z,242.43
2022-11-01T20:18:13.459Z,239.79
2022-11-01T20:19:17.383Z,237.21
2022-11-01T20:20:13.487Z,232.38
2022-11-01T20:21:13.601Z,234.85
2022-11-01T20:22:13.418Z,237.72
2022-11-01T20:23:25.833Z,234.52
2022-11-01T20:24:13.392Z,234.19
2022-11-01T20:25:13.559Z,238.41
2022-11-01T20:26:13.427Z,248.07
2022-11-01T20:27:13.499Z,253.20
2022-11-01T20:28:13.356Z,255.95
2022-11-01T20:29:13.622Z,253.98
2022-11-01T20:30:13.386Z,253.59
2022-11-01T20:31:13.468Z,264.76
2022-11-01T20:32:13.362Z,277.19
2022-11-01T20:33:13.549Z,283.61
2022-11-01T20:34:13.301Z,284.35
2022-11-01T20:35:13.409Z,285.57
2022-11-01T20:36:13.275Z,284.84
2022-11-01T20:37:29.408Z,281.44
2022-11-01T20:38:13.309Z,283.61
2022-11-01T20:39:15.607Z,283.86
2022-11-01T20:40:13.248Z,284.84
2022-11-01T20:41:13.393Z,279.07
2022-11-01T20:42:13.218Z,274.20
2022-11-01T20:43:13.460Z,272.62
2022-11-01T20:44:13.191Z,266.47
2022-11-01T20:45:13.315Z,264.34
2022-11-01T20:46:13.176Z,264.55
2022-11-01T20:47:13.342Z,266.04
2022-11-01T20:48:13.154Z,267.55
2022-11-01T20:49:13.385Z,270.83
2022-11-01T20:50:13.133Z,274.66
2022-11-01T20:51:13.320Z,277.66
2022-11-01T20:52:37.812Z,276.27
2022-11-01T20:53:13.311Z,273.30
2022-11-01T20:54:17.659Z,268.42
2022-11-01T20:55:13.311Z,270.61
2022-11-01T20:56:13.068Z,270.17
2022-11-01T20:57:25.041Z,273.75
2022-11-01T20:58:13.056Z,269.51
2022-11-01T20:59:14.756Z,250.51
2022-11-01T21:00:13.662Z,231.56
2022-11-01T21:01:13.147Z,215.98
2022-11-01T21:02:13.563Z,207.18
2022-11-01T21:03:13.000Z,201.37
2022-11-01T21:04:13.173Z,195.42
2022-11-01T21:05:12.978Z,192.13
2022-11-01T21:06:13.199Z,187.02
2022-11-01T21:07:12.957Z,186.59
2022-11-01T21:08:13.078Z,184.34
2022-11-01T21:09:12.941Z,181.95
2022-11-01T21:10:13.108Z,179.42
2022-11-01T21:11:12.918Z,175.86
2022-11-01T21:12:13.161Z,174.40
2022-11-01T21:13:16.394Z,176.04
2022-11-01T21:14:13.013Z,177.53
2022-11-01T21:15:12.888Z,178.85
2022-11-01T21:16:13.045Z,178.28
2022-11-01T21:17:12.857Z,176.78
2022-11-01T21:18:13.078Z,177.34
2022-11-01T21:19:12.842Z,177.72
2022-11-01T21:20:12.957Z,177.91
2022-11-01T21:21:12.819Z,178.66
2022-11-01T21:22:12.984Z,179.61
2022-11-01T21:23:12.800Z,179.23
2022-11-01T21:24:12.956Z,179.81
2022-11-01T21:25:12.776Z,181.36
2022-11-01T21:26:12.944Z,181.75
2022-11-01T21:27:12.762Z,180.58
2022-11-01T21:28:12.872Z,181.95
2022-11-01T21:29:12.741Z,181.95
2022-11-01T21:30:13.010Z,181.55
2022-11-01T21:31:12.730Z,181.36
2022-11-01T21:32:12.841Z,182.74
2022-11-01T21:33:12.969Z,182.14
2022-11-01T21:34:12.868Z,180.97
2022-11-01T21:35:12.678Z,181.95
2022-11-01T21:36:12.945Z,182.74
2022-11-01T21:37:12.661Z,181.95
2022-11-01T21:38:12.779Z,181.16
2022-11-01T21:39:12.641Z,181.95
2022-11-01T21:40:14.696Z,181.16
2022-11-01T21:41:12.618Z,180.97
2022-11-01T21:42:12.794Z,182.74
2022-11-01T21:43:12.602Z,182.14
2022-11-01T21:44:12.766Z,183.74
2022-11-01T21:45:12.581Z,184.34
2022-11-01T21:46:12.729Z,185.36
2022-11-01T21:47:12.553Z,184.75
2022-11-01T21:48:12.741Z,185.77
2022-11-01T21:49:12.543Z,184.95
2022-11-01T21:50:12.706Z,181.95
2022-11-01T21:51:12.517Z,180.19
2022-11-01T21:52:12.799Z,179.04
2022-11-01T21:53:12.501Z,179.23
2022-11-01T21:54:12.663Z,180.77
2022-11-01T21:55:12.512Z,180.58
2022-11-01T21:56:12.642Z,180.77
2022-11-01T21:57:12.461Z,180.39
2022-11-01T21:58:12.641Z,179.23
2022-11-01T21:59:12.433Z,179.61
2022-11-01T22:00:12.587Z,180.00
2022-11-01T22:01:12.557Z,180.39
2022-11-01T22:02:12.832Z,180.39
2022-11-01T22:03:12.411Z,180.58
2022-11-01T22:04:12.519Z,180.77
2022-11-01T22:05:12.412Z,181.16
2022-11-01T22:06:12.645Z,181.16
2022-11-01T22:07:12.354Z,182.54
2022-11-01T22:08:12.474Z,183.14
2022-11-01T22:09:12.334Z,183.94
2022-11-01T22:10:12.515Z,184.14
2022-11-01T22:11:12.316Z,184.54
2022-11-01T22:12:12.498Z,183.94
2022-11-01T22:13:12.588Z,183.74
2022-11-01T22:14:12.473Z,183.74
2022-11-01T22:15:12.270Z,184.34
2022-11-01T22:16:12.443Z,183.54
2022-11-01T22:17:12.262Z,183.34
2022-11-01T22:18:12.477Z,183.34
2022-11-01T22:19:12.236Z,181.55
2022-11-01T22:20:12.434Z,182.34
2022-11-01T22:21:12.216Z,183.34
2022-11-01T22:22:12.383Z,183.14
2022-11-01T22:23:12.193Z,182.34
2022-11-01T22:24:12.392Z,183.54
2022-11-01T22:25:12.174Z,181.55
2022-11-01T22:26:12.342Z,182.74
2022-11-01T22:27:12.154Z,182.14
2022-11-01T22:28:12.328Z,182.34
2022-11-01T22:29:12.138Z,182.74
2022-11-01T22:30:12.322Z,183.14
2022-11-01T22:31:12.112Z,182.54
2022-11-01T22:32:12.303Z,181.75
2022-11-01T22:33:12.094Z,181.55
2022-11-01T22:34:12.206Z,181.95
2022-11-01T22:35:12.073Z,182.74
2022-11-01T22:36:12.288Z,180.58
2022-11-01T22:37:12.049Z,181.75
2022-11-01T22:38:12.285Z,182.34
2022-11-01T22:39:12.027Z,182.74
2022-11-01T22:40:12.147Z,181.55
2022-11-01T22:41:12.012Z,180.00
2022-11-01T22:42:12.260Z,179.04
2022-11-01T22:43:11.990Z,179.42
2022-11-01T22:44:12.168Z,180.19
2022-11-01T22:45:11.965Z,181.95
2022-11-01T22:46:12.094Z,181.36
2022-11-01T22:47:12.188Z,181.36
2022-11-01T22:48:11.942Z,181.75
2022-11-01T22:49:12.068Z,183.34
2022-11-01T22:50:11.915Z,185.77
2022-11-01T22:51:12.074Z,185.56
2022-11-01T22:52:11.896Z,184.95
2022-11-01T22:53:12.055Z,185.97
2022-11-01T22:54:11.885Z,185.56
2022-11-01T22:55:12.048Z,186.18
2022-11-01T22:56:11.862Z,186.59
2022-11-01T22:57:12.293Z,186.60
2022-11-01T22:58:11.833Z,187.02